Time;durP1;ratioP1;P1;durP2;ratioP2;P2;SDS_P1;SDS_P2;PMS_P1;PMS_P2;Temp;Humidity;BMP_temperature;BMP_pressure;BME280_temperature;BME280_humidity;BME280_pressure;Samples;Min_cycle;Max_cycle;Signal;HPM_P1;HPM_P2
2022/06/09 00:02:03;;;;;;;16.50;5.47;;;;;;;12.48;100.00;100797.66;4972515;28;20049;-71
2022/06/09 00:04:34;;;;;;;11.23;4.25;;;;;;;12.48;100.00;100801.09;4972411;28;20065;-72
2022/06/09 00:07:15;;;;;;;8.50;5.32;;;;;;;12.45;100.00;100800.16;4972822;28;20278;-72
2022/06/09 00:09:45;;;;;;;14.10;4.97;;;;;;;12.44;100.00;100807.09;4972763;28;20476;-73
2022/06/09 00:12:11;;;;;;;14.63;5.40;;;;;;;12.45;100.00;100813.16;4972462;28;20471;-72
2022/06/09 00:14:37;;;;;;;11.57;4.70;;;;;;;12.46;100.00;100814.94;4972646;28;20033;-72
2022/06/09 00:17:03;;;;;;;16.15;4.60;;;;;;;12.48;100.00;100816.69;4972793;28;20577;-71
2022/06/09 00:19:29;;;;;;;14.02;4.80;;;;;;;12.48;100.00;100819.31;4972256;28;20053;-72
2022/06/09 00:21:54;;;;;;;10.95;5.20;;;;;;;12.49;100.00;100823.69;4971953;28;20140;-72
2022/06/09 00:24:21;;;;;;;14.85;5.72;;;;;;;12.49;100.00;100825.38;4972408;28;20026;-72
2022/06/09 00:26:47;;;;;;;17.25;5.95;;;;;;;12.49;100.00;100825.38;4972005;28;20034;-72
2022/06/09 00:29:12;;;;;;;15.63;5.63;;;;;;;12.47;100.00;100819.28;4972321;28;20022;-73
2022/06/09 00:31:37;;;;;;;13.38;6.07;;;;;;;12.45;100.00;100819.25;4972171;28;20105;-72
2022/06/09 00:34:03;;;;;;;16.80;6.10;;;;;;;12.42;100.00;100813.09;4971661;28;20105;-72
2022/06/09 00:36:29;;;;;;;15.25;5.70;;;;;;;12.41;100.00;100822.59;4972031;28;20062;-72
2022/06/09 00:38:55;;;;;;;12.50;5.28;;;;;;;12.36;100.00;100817.28;4971999;28;20038;-72
2022/06/09 00:41:20;;;;;;;19.20;5.95;;;;;;;12.33;100.00;100817.22;4972253;28;20026;-73
2022/06/09 00:43:46;;;;;;;14.07;6.78;;;;;;;12.35;100.00;100822.47;4971779;28;20198;-72
2022/06/09 00:46:15;;;;;;;17.75;5.78;;;;;;;12.33;100.00;100821.53;4971744;28;20022;-73
2022/06/09 00:49:14;;;;;;;13.68;6.30;;;;;;;12.33;100.00;100818.94;4972018;28;20030;-72
2022/06/09 00:51:48;;;;;;;18.13;5.93;;;;;;;12.34;100.00;100829.38;4971711;28;20442;-72
2022/06/09 00:54:18;;;;;;;20.08;6.40;;;;;;;12.35;100.00;100838.94;4971620;28;20030;-73
2022/06/09 00:56:54;;;;;;;15.65;6.43;;;;;;;12.35;100.00;100832.84;4971998;28;20030;-72
2022/06/09 00:59:22;;;;;;;16.73;6.47;;;;;;;12.32;100.00;100827.59;4970426;28;20307;-71
2022/06/09 01:01:48;;;;;;;18.85;6.25;;;;;;;12.34;100.00;100836.31;4971633;28;20061;-72
2022/06/09 01:04:17;;;;;;;17.70;6.43;;;;;;;12.35;100.00;100832.84;4971589;28;20031;-72
2022/06/09 01:06:49;;;;;;;17.63;6.28;;;;;;;12.35;100.00;100831.16;4971742;28;20062;-72
2022/06/09 01:09:18;;;;;;;17.45;6.13;;;;;;;12.35;100.00;100833.75;4971611;28;20486;-72
2022/06/09 01:11:47;;;;;;;16.67;5.65;;;;;;;12.34;100.00;100831.09;4971270;28;20065;-72
2022/06/09 01:14:15;;;;;;;16.65;5.90;;;;;;;12.35;100.00;100832.84;4971664;28;20023;-72
2022/06/09 01:17:02;;;;;;;20.85;5.47;;;;;;;12.31;100.00;100831.00;4971940;28;20035;-72
2022/06/09 01:20:05;;;;;;;21.52;6.30;;;;;;;12.29;100.00;100835.28;4971133;28;20159;-72
2022/06/09 01:22:55;;;;;;;15.15;6.40;;;;;;;12.28;100.00;100833.53;4910930;29;20059;-72
2022/06/09 01:25:39;;;;;;;18.85;6.78;;;;;;;12.25;100.00;100837.81;4911226;29;20044;-72
2022/06/09 01:28:25;;;;;;;16.30;6.60;;;;;;;12.22;100.00;100835.16;4956505;28;20043;-72
2022/06/09 01:31:25;;;;;;;21.10;6.93;;;;;;;12.25;100.00;100842.13;4971003;28;20434;-72
2022/06/09 01:34:00;;;;;;;21.58;7.35;;;;;;;12.23;100.00;100843.81;4971046;28;20117;-72
2022/06/09 01:36:51;;;;;;;19.67;7.43;;;;;;;12.23;100.00;100838.63;4971413;28;20034;-72
2022/06/09 01:39:17;;;;;;;19.15;7.38;;;;;;;12.23;100.00;100839.50;4970080;28;20403;-72
2022/06/09 01:41:47;;;;;;;17.65;6.10;;;;;;;12.23;100.00;100847.28;4971180;28;20045;-72
2022/06/09 01:44:14;;;;;;;19.65;7.30;;;;;;;12.23;100.00;100849.03;4971110;28;20034;-72
2022/06/09 01:46:44;;;;;;;21.33;7.13;;;;;;;12.21;100.00;100851.59;4971151;28;20058;-72
2022/06/09 01:49:17;;;;;;;21.55;7.63;;;;;;;12.20;100.00;100852.41;4970169;28;20497;-71
2022/06/09 01:51:44;;;;;;;19.92;7.88;;;;;;;12.22;100.00;100849.84;4970885;28;20034;-72
2022/06/09 01:54:16;;;;;;;18.17;7.35;;;;;;;12.21;100.00;100854.19;4952820;28;20431;-72
2022/06/09 01:56:46;;;;;;;22.98;7.85;;;;;;;12.21;100.00;100861.97;4970798;28;20038;-72
2022/06/09 01:59:17;;;;;;;26.58;8.20;;;;;;;12.19;100.00;100858.47;4970386;28;20022;-72
2022/06/09 02:01:47;;;;;;;25.52;8.90;;;;;;;12.20;100.00;100864.50;4970635;28;20376;-72
2022/06/09 02:04:22;;;;;;;20.25;8.75;;;;;;;12.19;100.00;100857.56;4970316;28;20076;-73
2022/06/09 02:06:49;;;;;;;25.45;8.93;;;;;;;12.16;100.00;100853.16;4970461;28;20042;-72
2022/06/09 02:09:16;;;;;;;28.10;8.38;;;;;;;12.15;100.00;100860.91;4970475;28;20019;-72
2022/06/09 02:11:51;;;;;;;24.67;8.13;;;;;;;12.13;100.00;100863.47;4970435;28;20023;-72
2022/06/09 02:14:19;;;;;;;21.65;8.60;;;;;;;12.11;100.00;100866.03;4969977;28;20069;-72
2022/06/09 02:16:45;;;;;;;26.17;9.80;;;;;;;12.12;100.00;100872.13;4970358;28;20037;-72
2022/06/09 02:19:10;;;;;;;21.75;9.05;;;;;;;12.10;100.00;100871.19;4969947;28;20364;-73
2022/06/09 02:21:37;;;;;;;27.80;9.60;;;;;;;12.09;100.00;100872.91;4952676;28;20488;-72
2022/06/09 02:24:03;;;;;;;22.95;8.52;;;;;;;12.06;100.00;100882.31;4970523;28;20049;-72
2022/06/09 02:26:28;;;;;;;25.40;8.85;;;;;;;12.05;100.00;100880.56;4969974;28;20039;-72
2022/06/09 02:28:54;;;;;;;20.70;8.63;;;;;;;12.01;100.00;100874.41;4969884;28;20027;-72
2022/06/09 02:31:21;;;;;;;23.40;8.88;;;;;;;12.03;100.00;100884.81;4970061;28;20114;-72
2022/06/09 02:33:47;;;;;;;23.27;8.93;;;;;;;12.01;100.00;100890.88;4970037;28;20085;-72
2022/06/09 02:36:13;;;;;;;23.25;9.25;;;;;;;12.05;100.00;100896.16;4970224;28;20034;-72
2022/06/09 02:38:38;;;;;;;23.13;9.30;;;;;;;12.04;100.00;100889.16;4970100;28;20092;-72
2022/06/09 02:41:04;;;;;;;26.27;9.13;;;;;;;12.05;100.00;100898.75;4969580;28;20471;-72
2022/06/09 02:43:29;;;;;;;28.13;10.00;;;;;;;12.05;100.00;100901.34;4969446;28;20030;-72
2022/06/09 02:45:54;;;;;;;23.70;10.57;;;;;;;12.05;100.00;100906.53;4970003;28;20125;-71
2022/06/09 02:48:20;;;;;;;25.50;9.18;;;;;;;12.05;100.00;100901.34;4969967;28;20052;-72
2022/06/09 02:50:47;;;;;;;25.45;9.25;;;;;;;12.05;100.00;100911.72;4969523;28;20034;-72
2022/06/09 02:53:13;;;;;;;23.15;10.15;;;;;;;12.07;100.00;100904.88;4969653;28;20030;-72
2022/06/09 02:55:39;;;;;;;23.20;9.82;;;;;;;12.05;100.00;100916.91;4969800;28;20113;-72
2022/06/09 02:58:04;;;;;;;32.05;11.02;;;;;;;12.05;100.00;100909.13;4969660;28;20122;-73
2022/06/09 03:00:30;;;;;;;23.13;9.77;;;;;;;12.06;100.00;100908.28;4969338;28;20027;-72
2022/06/09 03:02:59;;;;;;;26.85;10.75;;;;;;;12.08;100.00;100914.41;4969750;28;20034;-73
2022/06/09 03:05:26;;;;;;;28.33;10.48;;;;;;;12.08;100.00;100917.00;4970099;28;20034;-71
2022/06/09 03:07:51;;;;;;;31.05;11.20;;;;;;;12.08;100.00;100922.19;4970083;28;20022;-73
2022/06/09 03:10:17;;;;;;;24.55;10.15;;;;;;;12.09;100.00;100929.13;4970325;28;20034;-72
2022/06/09 03:12:43;;;;;;;22.95;9.52;;;;;;;12.10;100.00;100931.84;4969097;28;20030;-72
2022/06/09 03:15:10;;;;;;;29.27;10.40;;;;;;;12.10;100.00;100931.84;4967703;28;20041;-72
2022/06/09 03:17:36;;;;;;;25.63;9.95;;;;;;;12.10;100.00;100938.72;4968452;28;20035;-72
2022/06/09 03:20:03;;;;;;;24.20;10.50;;;;;;;12.09;100.00;100942.13;4968774;28;20286;-72
2022/06/09 03:22:30;;;;;;;26.60;10.45;;;;;;;12.09;100.00;100944.72;4969913;28;20030;-71
2022/06/09 03:24:56;;;;;;;23.08;9.88;;;;;;;12.10;100.00;100947.41;4974313;28;20443;-72
2022/06/09 03:27:21;;;;;;;27.63;10.48;;;;;;;12.10;100.00;100947.41;4974842;28;20357;-71
2022/06/09 03:29:46;;;;;;;27.63;10.50;;;;;;;12.11;100.00;100958.66;4976048;28;20503;-72
2022/06/09 03:32:12;;;;;;;26.48;10.63;;;;;;;12.10;100.00;100952.63;4976656;28;20113;-71
2022/06/09 03:34:37;;;;;;;21.42;10.50;;;;;;;12.11;100.00;100958.66;4975911;28;20030;-72
2022/06/09 03:37:03;;;;;;;21.88;9.90;;;;;;;12.11;100.00;100953.47;4976718;28;20027;-72
2022/06/09 03:39:28;;;;;;;24.90;10.52;;;;;;;12.08;100.00;100959.44;4976015;28;20031;-72
2022/06/09 03:41:53;;;;;;;29.00;10.63;;;;;;;12.07;100.00;100968.06;4976494;28;20523;-72
2022/06/09 03:44:19;;;;;;;26.88;12.00;;;;;;;12.07;100.00;100975.00;4976071;28;20066;-73
2022/06/09 03:46:45;;;;;;;25.30;9.32;;;;;;;12.04;100.00;100975.78;4976451;28;20050;-72
2022/06/09 03:49:10;;;;;;;23.90;10.63;;;;;;;12.07;100.00;100977.59;4976596;28;20110;-72
2022/06/09 03:51:35;;;;;;;24.88;10.52;;;;;;;12.06;100.00;100983.59;4976425;28;20117;-72
2022/06/09 03:54:01;;;;;;;26.13;10.57;;;;;;;12.07;100.00;100988.84;4976401;28;20065;-72
2022/06/09 03:56:26;;;;;;;27.17;11.02;;;;;;;12.05;100.00;100985.34;4976269;28;20084;-72
2022/06/09 03:58:52;;;;;;;22.30;9.70;;;;;;;12.04;100.00;100993.06;4975597;28;20039;-72
2022/06/09 04:01:18;;;;;;;19.52;10.23;;;;;;;12.05;100.00;100994.84;4976145;28;20070;-72
2022/06/09 04:03:48;;;;;;;24.73;10.35;;;;;;;12.03;100.00;100993.91;4976335;28;20038;-72
2022/06/09 04:06:17;;;;;;;26.45;10.57;;;;;;;12.00;100.00;101005.06;4958884;28;20035;-72
2022/06/09 04:08:43;;;;;;;20.90;10.25;;;;;;;11.99;100.00;101004.22;4976204;28;20023;-72
2022/06/09 04:11:09;;;;;;;27.38;10.50;;;;;;;11.97;100.00;101010.19;4975773;28;20626;-72
2022/06/09 04:13:35;;;;;;;23.55;10.35;;;;;;;11.96;100.00;101014.50;4976128;28;20026;-72
2022/06/09 04:16:00;;;;;;;23.58;9.90;;;;;;;11.97;100.00;101023.19;4976341;28;20033;-72
2022/06/09 04:18:26;;;;;;;28.33;11.85;;;;;;;11.91;100.00;101018.69;4976157;28;20391;-72
2022/06/09 04:20:51;;;;;;;25.83;9.88;;;;;;;11.92;100.00;101019.56;4975681;28;20496;-72
2022/06/09 04:23:16;;;;;;;20.77;9.63;;;;;;;11.88;100.00;101018.59;4975655;28;20395;-72
2022/06/09 04:25:41;;;;;;;27.27;10.95;;;;;;;11.88;100.00;101028.97;4976207;28;20040;-72
2022/06/09 04:28:07;;;;;;;24.13;10.65;;;;;;;11.86;100.00;101026.34;4976119;28;20593;-72
2022/06/09 04:30:32;;;;;;;29.42;11.73;;;;;;;11.83;100.00;101017.59;4975493;28;20035;-72
2022/06/09 04:32:58;;;;;;;26.33;11.23;;;;;;;11.85;100.00;101026.31;4976043;28;20045;-72
2022/06/09 04:35:24;;;;;;;21.17;9.82;;;;;;;11.89;100.00;101030.75;4972208;28;20130;-72
2022/06/09 04:37:59;;;;;;;25.88;11.68;;;;;;;11.91;100.00;101034.25;4972579;28;20041;-72
2022/06/09 04:40:26;;;;;;;22.13;10.38;;;;;;;11.95;100.00;101033.53;4973171;28;20041;-73
2022/06/09 04:42:51;;;;;;;24.55;11.07;;;;;;;11.98;100.00;101040.53;4972277;28;20039;-72
2022/06/09 04:45:17;;;;;;;25.42;11.18;;;;;;;12.01;100.00;101044.09;4973277;28;20039;-72
2022/06/09 04:47:42;;;;;;;26.50;10.98;;;;;;;12.03;100.00;101043.25;4973092;28;20034;-72
2022/06/09 04:50:10;;;;;;;27.33;10.90;;;;;;;12.03;100.00;101043.25;4972518;28;20026;-71
2022/06/09 04:52:36;;;;;;;24.75;11.50;;;;;;;12.05;100.00;101046.78;4972344;28;20117;-72
2022/06/09 04:55:01;;;;;;;26.73;12.15;;;;;;;12.04;100.00;101051.09;4972438;28;20539;-72
2022/06/09 04:57:26;;;;;;;24.55;11.40;;;;;;;12.07;100.00;101058.97;4972240;28;20506;-73
2022/06/09 04:59:53;;;;;;;22.35;11.15;;;;;;;12.09;100.00;101059.00;4971969;28;20689;-72
2022/06/09 05:02:19;;;;;;;24.38;11.68;;;;;;;12.12;100.00;101062.59;4972760;28;20109;-72
2022/06/09 05:04:44;;;;;;;23.67;10.73;;;;;;;12.18;100.00;101064.50;4972375;28;20105;-72
2022/06/09 05:07:10;;;;;;;24.92;10.95;;;;;;;12.23;100.00;101068.13;4971830;28;20041;-73
2022/06/09 05:09:35;;;;;;;24.83;11.07;;;;;;;12.25;100.00;101076.84;4972501;28;20058;-72
2022/06/09 05:12:01;;;;;;;26.33;10.88;;;;;;;12.34;100.00;101080.56;4972574;28;20110;-72
2022/06/09 05:14:26;;;;;;;20.67;10.02;;;;;;;12.40;100.00;101092.81;4972401;28;20110;-73
2022/06/09 05:16:52;;;;;;;24.55;10.23;;;;;;;12.47;100.00;101095.66;4972299;28;20068;-73
2022/06/09 05:19:17;;;;;;;23.23;11.20;;;;;;;12.56;100.00;101096.72;4971968;28;20031;-72
2022/06/09 05:21:42;;;;;;;17.50;10.27;;;;;;;12.62;100.00;101107.31;4971956;28;20059;-73
2022/06/09 05:24:08;;;;;;;25.52;11.50;;;;;;;12.69;100.00;101113.56;4972112;28;20527;-72
2022/06/09 05:26:33;;;;;;;23.10;10.40;;;;;;;12.78;100.00;101107.72;4971921;28;20105;-73
2022/06/09 05:28:58;;;;;;;28.52;10.85;;;;;;;12.84;100.00;101113.13;4971447;28;20368;-72
2022/06/09 05:31:24;;;;;;;21.77;9.20;;;;;;;12.89;100.00;101110.63;4971763;28;20030;-72
2022/06/09 05:33:49;;;;;;;18.33;9.35;;;;;;;12.95;100.00;101111.66;4971606;28;20052;-72
2022/06/09 05:36:15;;;;;;;22.80;10.05;;;;;;;13.08;100.00;101117.19;4971722;28;20054;-72
2022/06/09 05:46:54;;;;;;;20.48;9.00;;;;;;;13.62;100.00;101135.91;4971635;28;20092;-72
2022/06/09 05:49:20;;;;;;;21.38;8.30;;;;;;;13.66;100.00;101136.88;4971604;28;20027;-72
2022/06/09 05:51:49;;;;;;;16.83;8.02;;;;;;;13.73;100.00;101137.88;4970971;28;20019;-71
2022/06/09 05:54:14;;;;;;;21.70;8.70;;;;;;;13.73;100.00;101153.50;4971345;28;20027;-72
2022/06/09 05:56:40;;;;;;;20.17;9.52;;;;;;;13.71;100.00;101150.88;4971273;28;20471;-72
2022/06/09 05:59:05;;;;;;;15.50;7.35;;;;;;;13.66;100.00;101157.69;4971150;28;20031;-72
2022/06/09 06:01:30;;;;;;;21.83;9.45;;;;;;;13.71;100.00;101158.69;4970493;28;20035;-73
2022/06/09 06:03:56;;;;;;;15.10;7.65;;;;;;;13.81;100.00;101159.81;4971059;28;20033;-72
2022/06/09 06:06:33;;;;;;;18.98;7.28;;;;;;;13.86;100.00;101159.91;4971472;28;20395;-73
2022/06/09 06:09:00;;;;;;;19.63;8.43;;;;;;;13.97;100.00;101168.84;4971260;28;20077;-72
2022/06/09 06:11:25;;;;;;;18.10;7.00;;;;;;;14.13;100.00;101175.28;4970555;28;20023;-73
2022/06/09 06:13:51;;;;;;;18.73;7.78;;;;;;;14.33;100.00;101187.88;4970751;28;20542;-73
2022/06/09 06:16:16;;;;;;;17.05;7.18;;;;;;;14.41;100.00;101178.50;4971482;28;20186;-72
2022/06/09 06:18:42;;;;;;;17.20;7.50;;;;;;;14.57;100.00;101176.22;4970953;28;20023;-72
2022/06/09 06:21:07;;;;;;;16.30;6.53;;;;;;;14.77;100.00;101180.94;4970766;28;20133;-72
2022/06/09 06:23:33;;;;;;;15.50;7.32;;;;;;;15.06;100.00;101185.91;4970576;28;20097;-72
2022/06/09 06:25:58;;;;;;;16.98;7.15;;;;;;;15.25;100.00;101194.94;4970825;28;20027;-73
2022/06/09 06:28:25;;;;;;;15.90;6.45;;;;;;;15.43;100.00;101190.03;4953331;28;20014;-73
2022/06/09 06:30:50;;;;;;;13.85;6.22;;;;;;;15.51;100.00;101193.66;4970505;28;20034;-72
2022/06/09 06:33:16;;;;;;;15.35;5.97;;;;;;;15.50;100.00;101194.50;4970254;28;20031;-73
2022/06/09 06:35:42;;;;;;;11.38;5.20;;;;;;;15.51;100.00;101198.88;4970534;28;20491;-73
2022/06/09 06:38:07;;;;;;;14.98;6.63;;;;;;;15.42;100.00;101210.03;4970582;28;20529;-72
2022/06/09 06:40:33;;;;;;;17.20;6.20;;;;;;;15.38;100.00;101209.97;4970962;28;20050;-73
2022/06/09 06:42:58;;;;;;;12.35;5.25;;;;;;;15.32;100.00;101209.00;4970167;28;20369;-74
2022/06/09 06:45:25;;;;;;;8.43;5.20;;;;;;;15.26;100.00;101214.09;4970555;28;20027;-73
2022/06/09 06:47:51;;;;;;;11.15;5.60;;;;;;;15.18;100.00;101213.09;4970074;28;20042;-72
2022/06/09 06:50:16;;;;;;;11.02;5.82;;;;;;;15.11;100.00;101226.00;4970462;28;20027;-72
2022/06/09 06:52:42;;;;;;;10.07;5.57;;;;;;;15.06;100.00;101227.66;4970407;28;20080;-73
2022/06/09 06:55:12;;;;;;;8.38;5.28;;;;;;;15.01;100.00;101226.69;4969947;28;20278;-73
2022/06/09 06:57:38;;;;;;;10.77;5.53;;;;;;;14.99;100.00;101231.00;4969469;28;20043;-72
2022/06/09 07:00:09;;;;;;;8.85;4.72;;;;;;;14.96;100.00;101251.81;4970082;28;20033;-73
2022/06/09 07:02:34;;;;;;;12.40;5.30;;;;;;;14.93;100.00;101246.53;4970187;28;20113;-73
2022/06/09 07:05:00;;;;;;;8.57;4.82;;;;;;;14.91;100.00;101253.44;4969823;28;20109;-72
2022/06/09 07:07:25;;;;;;;12.80;5.55;;;;;;;14.91;100.00;101250.84;4970021;28;20034;-73
2022/06/09 07:09:51;;;;;;;12.50;6.15;;;;;;;14.92;100.00;101250.88;4970036;28;20111;-73
2022/06/09 07:12:17;;;;;;;9.60;5.15;;;;;;;14.91;100.00;101256.94;4969695;28;20453;-73
2022/06/09 07:14:42;;;;;;;13.18;5.20;;;;;;;14.89;100.00;101259.50;4970246;28;20106;-73
2022/06/09 07:17:07;;;;;;;12.40;5.43;;;;;;;14.83;100.00;101269.81;4970043;28;20434;-73
2022/06/09 07:19:33;;;;;;;10.57;4.80;;;;;;;14.84;100.00;101274.19;4970264;28;20035;-73
2022/06/09 07:21:58;;;;;;;8.73;4.65;;;;;;;14.84;100.00;101276.78;4969756;28;20423;-73
2022/06/09 07:24:25;;;;;;;11.32;5.00;;;;;;;14.84;100.00;101279.41;4970147;28;20073;-73
2022/06/09 07:26:51;;;;;;;8.48;4.05;;;;;;;14.87;100.00;101289.91;4952514;28;20027;-72
2022/06/09 07:29:17;;;;;;;7.93;4.38;;;;;;;14.91;100.00;101284.75;4970375;28;20023;-73
2022/06/09 07:31:42;;;;;;;11.00;4.82;;;;;;;14.93;100.00;101293.50;4969705;28;20471;-73
2022/06/09 07:34:08;;;;;;;8.25;4.93;;;;;;;14.95;100.00;101290.06;4969830;28;20065;-72
2022/06/09 07:36:33;;;;;;;8.98;4.45;;;;;;;14.97;100.00;101288.38;4969966;28;20031;-73
2022/06/09 07:38:58;;;;;;;11.45;4.80;;;;;;;14.98;100.00;101292.75;4969692;28;20039;-74
2022/06/09 07:41:24;;;;;;;7.10;4.38;;;;;;;14.98;100.00;101291.88;4984714;28;20030;-73
2022/06/09 07:43:50;;;;;;;7.43;3.88;;;;;;;15.00;100.00;101295.41;4969727;28;20026;-73
2022/06/09 07:46:17;;;;;;;8.52;4.38;;;;;;;14.99;100.00;101298.84;4969845;28;20037;-73
2022/06/09 07:48:42;;;;;;;9.07;4.63;;;;;;;15.04;100.00;101291.13;4969581;28;20491;-73
2022/06/09 07:51:08;;;;;;;9.73;5.88;;;;;;;15.11;100.00;101299.09;4969690;28;20035;-72
2022/06/09 07:53:34;;;;;;;8.43;6.32;;;;;;;15.21;100.00;101297.56;4984858;28;20023;-73
2022/06/09 07:56:00;;;;;;;6.35;5.35;;;;;;;15.34;100.00;101298.66;4969470;28;20034;-73
2022/06/09 07:58:26;;;;;;;5.20;3.75;;;;;;;15.43;100.00;101297.09;4969653;28;20034;-73
2022/06/09 08:00:51;;;;;;;6.38;3.45;;;;;;;15.68;100.00;101294.94;4969686;28;20034;-73
2022/06/09 08:03:24;;;;;;;4.65;2.83;;;;;;;15.96;100.00;101295.41;4969759;28;20054;-73
2022/06/09 08:05:50;;;;;;;4.82;2.13;;;;;;;16.24;100.00;101306.38;4969043;28;20042;-73
2022/06/09 08:08:16;;;;;;;2.28;1.35;;;;;;;16.58;100.00;101303.38;4969894;28;20027;-73
2022/06/09 08:10:42;;;;;;;4.22;1.38;;;;;;;17.01;100.00;101307.44;4973569;28;20394;-73
2022/06/09 08:13:08;;;;;;;2.85;1.33;;;;;;;17.42;100.00;101308.81;4973388;28;20086;-72
2022/06/09 08:15:34;;;;;;;5.30;1.63;;;;;;;17.71;100.00;101313.47;4973228;28;20031;-73
2022/06/09 08:18:01;;;;;;;2.05;0.85;;;;;;;17.73;95.67;101327.47;4973134;28;20497;-73
2022/06/09 08:20:29;;;;;;;2.50;0.85;;;;;;;17.65;95.12;101321.25;4972964;28;20454;-73
2022/06/09 08:23:02;;;;;;;3.15;1.10;;;;;;;17.58;97.29;101322.06;4973119;28;20022;-74
2022/06/09 08:25:28;;;;;;;1.85;0.80;;;;;;;17.51;92.96;101324.63;4987898;28;20039;-73
2022/06/09 08:27:53;;;;;;;1.75;1.00;;;;;;;17.63;98.23;101336.09;4973288;28;20033;-73
2022/06/09 08:30:19;;;;;;;2.22;1.17;;;;;;;17.67;96.83;101327.41;4972503;28;20038;-73
2022/06/09 08:32:44;;;;;;;2.78;1.50;;;;;;;17.67;94.36;101337.88;4972910;28;20030;-73
2022/06/09 08:35:15;;;;;;;2.38;1.40;;;;;;;17.68;96.91;101342.28;4955462;28;20126;-72
2022/06/09 08:37:42;;;;;;;4.13;1.35;;;;;;;17.68;96.33;101344.91;4972953;28;20088;-73
2022/06/09 08:40:13;;;;;;;2.35;1.48;;;;;;;17.90;97.85;101344.22;4972804;28;20074;-72
2022/06/09 08:43:08;;;;;;;5.60;1.48;;;;;;;18.27;94.18;101351.56;4973083;28;20459;-73
2022/06/09 08:45:36;;;;;;;3.85;1.30;;;;;;;18.54;88.73;101352.63;4987417;28;20015;-73
2022/06/09 08:48:04;;;;;;;3.60;1.58;;;;;;;18.61;88.45;101351.81;4972890;28;20482;-73
2022/06/09 08:50:40;;;;;;;2.60;1.60;;;;;;;18.62;89.84;101361.44;4973280;28;20256;-73
2022/06/09 08:53:15;;;;;;;3.90;1.30;;;;;;;18.42;86.77;101359.53;4972762;28;20035;-73
2022/06/09 08:55:51;;;;;;;2.78;1.20;;;;;;;18.17;86.39;101369.84;4972400;28;20027;-73
2022/06/09 08:58:36;;;;;;;1.73;1.00;;;;;;;17.98;88.84;101372.28;4972470;28;20030;-73
2022/06/09 09:01:10;;;;;;;3.60;0.80;;;;;;;17.81;91.57;101376.47;4972467;28;20058;-73
2022/06/09 09:03:40;;;;;;;1.42;0.60;;;;;;;17.66;88.62;101378.06;4972580;28;20066;-73
2022/06/09 09:06:24;;;;;;;2.67;0.90;;;;;;;17.53;92.79;101377.03;4972413;28;20403;-73
2022/06/09 09:08:50;;;;;;;3.38;0.90;;;;;;;17.43;90.29;101383.91;4971604;28;20538;-73
2022/06/09 09:11:28;;;;;;;2.15;0.85;;;;;;;17.37;90.54;101391.69;4971997;28;20117;-73
2022/06/09 09:13:59;;;;;;;1.48;0.60;;;;;;;17.30;89.85;101389.84;4972160;28;20061;-73
2022/06/09 09:16:43;;;;;;;1.50;0.77;;;;;;;17.24;91.22;101390.66;4972143;28;20027;-73
2022/06/09 09:19:35;;;;;;;3.08;1.10;;;;;;;17.21;89.85;101395.84;4971743;28;20058;-73
2022/06/09 09:22:08;;;;;;;2.05;0.57;;;;;;;17.20;90.97;101394.09;4971244;28;20055;-73
2022/06/09 09:24:58;;;;;;;2.35;0.80;;;;;;;17.21;93.21;101401.97;4972036;28;20035;-73
2022/06/09 09:27:33;;;;;;;3.70;1.00;;;;;;;17.21;91.21;101401.97;4972092;28;20031;-73
2022/06/09 09:30:01;;;;;;;3.83;1.20;;;;;;;17.24;94.39;101404.63;4972256;28;20022;-73
2022/06/09 09:32:37;;;;;;;2.30;1.15;;;;;;;17.27;96.00;101407.28;4971857;28;20487;-73
2022/06/09 09:35:08;;;;;;;2.33;1.08;;;;;;;17.31;96.97;101407.31;4971292;28;20157;-73
2022/06/09 09:37:44;;;;;;;2.30;1.05;;;;;;;17.28;95.24;101411.69;4971737;28;20081;-73
2022/06/09 09:40:11;;;;;;;3.13;1.25;;;;;;;17.35;98.67;101414.38;4971709;28;20035;-73
2022/06/09 09:42:42;;;;;;;4.20;1.63;;;;;;;17.37;96.22;101423.13;4972090;28;20034;-73
2022/06/09 09:45:10;;;;;;;4.88;1.60;;;;;;;17.41;97.85;101422.31;4972334;28;20527;-73
2022/06/09 09:47:48;;;;;;;2.88;1.55;;;;;;;17.43;99.21;101427.56;4971157;28;20034;-73
2022/06/09 09:50:48;;;;;;;3.20;1.92;;;;;;;17.43;99.14;101431.03;4971963;28;20394;-72
2022/06/09 09:53:19;;;;;;;3.22;1.73;;;;;;;17.46;100.00;101433.72;4971387;28;20023;-73
2022/06/09 09:55:55;;;;;;;5.32;2.80;;;;;;;17.52;100.00;101436.41;4970938;28;20494;-73
2022/06/09 09:58:23;;;;;;;5.30;2.80;;;;;;;17.59;100.00;101437.34;4971403;28;20027;-73
2022/06/09 10:00:53;;;;;;;5.65;3.20;;;;;;;17.68;99.99;101439.25;4971562;28;20105;-73
2022/06/09 10:09:14;;;;;;;4.80;3.67;;;;;;;17.95;97.51;101450.00;4971022;28;20573;-74
2022/06/09 10:11:53;;;;;;;5.47;4.00;;;;;;;18.02;99.94;101449.22;4971311;28;20486;-72
2022/06/09 10:14:47;;;;;;;6.03;4.40;;;;;;;18.08;98.41;101454.50;4971166;28;20046;-73
2022/06/09 10:17:41;;;;;;;4.78;3.92;;;;;;;18.18;98.68;101460.78;4970445;28;20050;-73
2022/06/09 10:20:28;;;;;;;4.30;3.42;;;;;;;18.27;98.83;101457.38;4970833;28;20035;-72
2022/06/09 10:23:09;;;;;;;6.63;3.60;;;;;;;18.30;97.20;101460.00;4970916;28;20026;-73
2022/06/09 10:25:53;;;;;;;;;;;;;;;18.35;97.93;101457.41;4971417;28;20459;-73
2022/06/09 10:28:27;;;;;;;4.90;3.95;;;;;;;18.45;97.52;101461.03;4970281;28;19914;-73
2022/06/09 10:31:24;;;;;;;6.10;5.05;;;;;;;18.43;93.36;101461.00;4970505;28;20515;-72
2022/06/09 10:34:08;;;;;;;7.28;3.40;;;;;;;18.36;92.92;101465.31;4969795;28;20039;-73
2022/06/09 10:36:48;;;;;;;6.18;5.00;;;;;;;18.21;95.67;101470.41;4970431;28;20048;-73
2022/06/09 10:39:54;;;;;;;8.88;5.65;;;;;;;18.12;97.79;101468.53;4970394;28;20027;-73
2022/06/09 10:42:29;;;;;;;5.95;5.35;;;;;;;18.02;96.16;101479.78;4961997;28;20499;-72
2022/06/09 10:45:20;;;;;;;6.38;5.78;;;;;;;17.87;97.93;101479.63;4970917;28;20030;-73
2022/06/09 10:57:04;;;;;;;7.60;6.95;;;;;;;17.62;99.18;101481.97;4970456;28;20082;-73
2022/06/09 10:59:36;;;;;;;9.60;8.50;;;;;;;17.75;100.00;101488.22;4970045;28;20149;-73
2022/06/09 11:02:09;;;;;;;9.70;8.70;;;;;;;18.02;100.00;101498.16;4969818;28;20029;-73
2022/06/09 11:04:35;;;;;;;9.80;8.10;;;;;;;18.23;97.70;101482.69;4970172;28;20031;-73
2022/06/09 11:07:18;;;;;;;8.07;7.47;;;;;;;18.46;99.43;101489.00;4952716;28;20039;-73
2022/06/09 11:09:59;;;;;;;7.97;6.75;;;;;;;18.81;99.86;101487.56;4970512;28;20459;-73
2022/06/09 11:13:07;;;;;;;7.15;6.43;;;;;;;19.29;100.00;101490.53;4970350;28;20417;-73
2022/06/09 11:15:48;;;;;;;7.85;5.68;;;;;;;19.65;90.76;101495.97;4968970;28;20193;-73
2022/06/09 11:18:29;;;;;;;5.28;4.68;;;;;;;19.89;92.77;101502.22;4970085;28;20014;-73
2022/06/09 11:21:10;;;;;;;9.77;5.22;;;;;;;20.03;92.44;101509.25;4970125;28;20462;-73
2022/06/09 11:23:54;;;;;;;8.73;3.53;;;;;;;20.00;85.67;101504.00;4969926;28;20065;-73
2022/06/09 11:26:40;;;;;;;3.80;2.75;;;;;;;20.21;85.41;101503.22;4969441;28;20638;-73
2022/06/09 11:29:38;;;;;;;6.30;3.05;;;;;;;20.22;80.07;101497.06;4969831;28;20356;-73
2022/06/09 11:32:21;;;;;;;7.47;2.60;;;;;;;20.31;80.50;101493.56;4969985;28;20026;-73
2022/06/09 11:34:53;;;;;;;6.60;2.95;;;;;;;20.42;80.44;101493.59;4969332;28;20475;-72
2022/06/09 11:37:50;;;;;;;6.70;2.70;;;;;;;20.33;79.14;101499.72;4952303;28;20126;-72
2022/06/09 11:40:39;;;;;;;6.75;2.70;;;;;;;20.21;81.41;101508.47;4969810;28;20031;-73
2022/06/09 11:43:34;;;;;;;6.43;2.10;;;;;;;20.33;81.11;101512.88;4969929;28;20031;-73
2022/06/09 11:46:14;;;;;;;5.68;2.67;;;;;;;20.31;81.18;101517.25;4973873;28;20413;-73
2022/06/09 11:48:44;;;;;;;6.27;2.00;;;;;;;20.13;78.87;101521.59;4973408;28;20093;-74
2022/06/09 11:51:10;;;;;;;7.47;1.88;;;;;;;19.89;78.07;101525.88;4973434;28;20081;-73